sensor_id;sensor_type;location;lat;lon;timestamp;temperature;humidity
18974;DHT22;9621;48.690;9.466;2023-06-19T00:00:09;19.20;63.70
18974;DHT22;9621;48.690;9.466;2023-06-19T00:02:38;19.20;64.10
18974;DHT22;9621;48.690;9.466;2023-06-19T00:05:06;19.20;63.90
18974;DHT22;9621;48.690;9.466;2023-06-19T00:07:33;19.10;63.90
18974;DHT22;9621;48.690;9.466;2023-06-19T00:10:00;19.10;64.30
18974;DHT22;9621;48.690;9.466;2023-06-19T00:12:27;19.10;64.10
18974;DHT22;9621;48.690;9.466;2023-06-19T00:14:54;19.10;64.40
18974;DHT22;9621;48.690;9.466;2023-06-19T00:17:22;19.10;64.80
18974;DHT22;9621;48.690;9.466;2023-06-19T00:19:51;19.10;65.30
18974;DHT22;9621;48.690;9.466;2023-06-19T00:22:18;19.00;65.00
18974;DHT22;9621;48.690;9.466;2023-06-19T00:24:45;19.00;65.10
18974;DHT22;9621;48.690;9.466;2023-06-19T00:27:12;19.00;65.30
18974;DHT22;9621;48.690;9.466;2023-06-19T00:29:39;19.00;65.10
18974;DHT22;9621;48.690;9.466;2023-06-19T00:32:07;18.90;65.50
18974;DHT22;9621;48.690;9.466;2023-06-19T00:34:35;18.90;65.60
18974;DHT22;9621;48.690;9.466;2023-06-19T00:37:03;18.90;65.80
18974;DHT22;9621;48.690;9.466;2023-06-19T00:39:30;18.90;65.70
18974;DHT22;9621;48.690;9.466;2023-06-19T00:41:58;19.00;65.60
18974;DHT22;9621;48.690;9.466;2023-06-19T00:44:25;19.00;65.90
18974;DHT22;9621;48.690;9.466;2023-06-19T00:46:57;18.90;66.00
18974;DHT22;9621;48.690;9.466;2023-06-19T00:49:25;18.90;66.80
18974;DHT22;9621;48.690;9.466;2023-06-19T00:51:53;18.90;66.20
18974;DHT22;9621;48.690;9.466;2023-06-19T00:54:20;18.90;66.20
18974;DHT22;9621;48.690;9.466;2023-06-19T00:56:47;18.90;66.50
18974;DHT22;9621;48.690;9.466;2023-06-19T00:59:16;18.90;66.60
18974;DHT22;9621;48.690;9.466;2023-06-19T01:01:44;18.80;66.70
18974;DHT22;9621;48.690;9.466;2023-06-19T01:04:11;18.80;66.80
18974;DHT22;9621;48.690;9.466;2023-06-19T01:06:43;18.80;67.20
18974;DHT22;9621;48.690;9.466;2023-06-19T01:09:16;18.80;68.00
18974;DHT22;9621;48.690;9.466;2023-06-19T01:11:47;18.70;67.90
18974;DHT22;9621;48.690;9.466;2023-06-19T01:14:18;18.70;68.00
18974;DHT22;9621;48.690;9.466;2023-06-19T01:16:48;18.70;68.40
18974;DHT22;9621;48.690;9.466;2023-06-19T01:19:18;18.70;68.10
18974;DHT22;9621;48.690;9.466;2023-06-19T01:21:46;18.70;68.40
18974;DHT22;9621;48.690;9.466;2023-06-19T01:24:14;18.70;68.10
18974;DHT22;9621;48.690;9.466;2023-06-19T01:26:41;18.60;68.40
18974;DHT22;9621;48.690;9.466;2023-06-19T01:29:11;18.60;68.60
18974;DHT22;9621;48.690;9.466;2023-06-19T01:31:47;18.60;68.70
18974;DHT22;9621;48.690;9.466;2023-06-19T01:34:17;18.50;69.00
18974;DHT22;9621;48.690;9.466;2023-06-19T01:36:47;18.50;68.60
18974;DHT22;9621;48.690;9.466;2023-06-19T01:39:18;18.50;68.70
18974;DHT22;9621;48.690;9.466;2023-06-19T01:41:46;18.50;68.90
18974;DHT22;9621;48.690;9.466;2023-06-19T01:44:14;18.60;68.60
18974;DHT22;9621;48.690;9.466;2023-06-19T01:46:41;18.60;68.40
18974;DHT22;9621;48.690;9.466;2023-06-19T01:49:08;18.60;68.70
18974;DHT22;9621;48.690;9.466;2023-06-19T01:51:35;18.70;69.40
18974;DHT22;9621;48.690;9.466;2023-06-19T01:54:02;18.70;69.30
18974;DHT22;9621;48.690;9.466;2023-06-19T01:56:31;18.70;69.40
18974;DHT22;9621;48.690;9.466;2023-06-19T01:58:58;18.70;69.60
18974;DHT22;9621;48.690;9.466;2023-06-19T02:01:25;18.70;70.40
18974;DHT22;9621;48.690;9.466;2023-06-19T02:03:53;18.70;69.70
18974;DHT22;9621;48.690;9.466;2023-06-19T02:06:19;18.70;69.60
18974;DHT22;9621;48.690;9.466;2023-06-19T02:08:47;18.80;69.80
18974;DHT22;9621;48.690;9.466;2023-06-19T02:11:14;18.80;69.60
18974;DHT22;9621;48.690;9.466;2023-06-19T02:13:43;18.90;69.60
18974;DHT22;9621;48.690;9.466;2023-06-19T02:16:09;18.90;69.60
18974;DHT22;9621;48.690;9.466;2023-06-19T02:18:36;18.90;69.40
18974;DHT22;9621;48.690;9.466;2023-06-19T02:21:03;19.00;69.40
18974;DHT22;9621;48.690;9.466;2023-06-19T02:23:30;19.00;69.40
18974;DHT22;9621;48.690;9.466;2023-06-19T02:25:57;19.10;69.60
18974;DHT22;9621;48.690;9.466;2023-06-19T02:28:24;19.10;69.60
18974;DHT22;9621;48.690;9.466;2023-06-19T02:30:53;19.00;69.60
18974;DHT22;9621;48.690;9.466;2023-06-19T02:33:20;19.00;69.80
18974;DHT22;9621;48.690;9.466;2023-06-19T02:35:47;19.00;69.60
18974;DHT22;9621;48.690;9.466;2023-06-19T02:38:14;19.00;69.60
18974;DHT22;9621;48.690;9.466;2023-06-19T02:40:41;19.00;69.60
18974;DHT22;9621;48.690;9.466;2023-06-19T02:43:08;19.00;69.70
18974;DHT22;9621;48.690;9.466;2023-06-19T02:45:35;19.00;69.60
18974;DHT22;9621;48.690;9.466;2023-06-19T02:48:04;19.00;69.70
18974;DHT22;9621;48.690;9.466;2023-06-19T02:50:31;19.00;69.80
18974;DHT22;9621;48.690;9.466;2023-06-19T02:52:58;19.10;69.70
18974;DHT22;9621;48.690;9.466;2023-06-19T02:55:25;19.10;69.80
18974;DHT22;9621;48.690;9.466;2023-06-19T02:57:51;19.00;69.70
18974;DHT22;9621;48.690;9.466;2023-06-19T03:00:19;19.10;69.80
18974;DHT22;9621;48.690;9.466;2023-06-19T03:02:46;19.10;69.80
18974;DHT22;9621;48.690;9.466;2023-06-19T03:05:15;19.10;69.80
18974;DHT22;9621;48.690;9.466;2023-06-19T03:07:42;19.10;69.80
18974;DHT22;9621;48.690;9.466;2023-06-19T03:10:09;19.10;69.80
18974;DHT22;9621;48.690;9.466;2023-06-19T03:12:36;19.20;69.90
18974;DHT22;9621;48.690;9.466;2023-06-19T03:15:04;19.20;69.80
18974;DHT22;9621;48.690;9.466;2023-06-19T03:17:30;19.20;69.80
18974;DHT22;9621;48.690;9.466;2023-06-19T03:19:57;19.20;69.70
18974;DHT22;9621;48.690;9.466;2023-06-19T03:22:25;19.20;69.80
18974;DHT22;9621;48.690;9.466;2023-06-19T03:24:52;19.30;70.00
18974;DHT22;9621;48.690;9.466;2023-06-19T03:27:19;19.30;70.00
18974;DHT22;9621;48.690;9.466;2023-06-19T03:29:46;19.30;70.00
18974;DHT22;9621;48.690;9.466;2023-06-19T03:32:13;19.30;70.00
18974;DHT22;9621;48.690;9.466;2023-06-19T03:34:39;19.40;70.00
18974;DHT22;9621;48.690;9.466;2023-06-19T03:37:06;19.40;70.00
18974;DHT22;9621;48.690;9.466;2023-06-19T03:39:34;19.40;70.00
18974;DHT22;9621;48.690;9.466;2023-06-19T03:42:01;19.40;70.00
18974;DHT22;9621;48.690;9.466;2023-06-19T03:44:28;19.40;69.90
18974;DHT22;9621;48.690;9.466;2023-06-19T03:46:55;19.50;70.00
18974;DHT22;9621;48.690;9.466;2023-06-19T03:49:22;19.50;70.00
18974;DHT22;9621;48.690;9.466;2023-06-19T03:51:49;19.60;70.00
18974;DHT22;9621;48.690;9.466;2023-06-19T03:54:16;19.60;70.00
18974;DHT22;9621;48.690;9.466;2023-06-19T03:56:44;19.60;70.10
18974;DHT22;9621;48.690;9.466;2023-06-19T03:59:11;19.70;70.10
18974;DHT22;9621;48.690;9.466;2023-06-19T04:01:38;19.80;69.80
18974;DHT22;9621;48.690;9.466;2023-06-19T04:04:06;19.80;69.70
18974;DHT22;9621;48.690;9.466;2023-06-19T04:06:33;19.90;69.60
18974;DHT22;9621;48.690;9.466;2023-06-19T04:09:00;19.90;69.50
18974;DHT22;9621;48.690;9.466;2023-06-19T04:11:27;19.90;69.50
18974;DHT22;9621;48.690;9.466;2023-06-19T04:13:55;19.90;69.50
18974;DHT22;9621;48.690;9.466;2023-06-19T04:16:22;19.90;69.70
18974;DHT22;9621;48.690;9.466;2023-06-19T04:18:49;19.90;69.70
18974;DHT22;9621;48.690;9.466;2023-06-19T04:21:16;20.00;69.80
18974;DHT22;9621;48.690;9.466;2023-06-19T04:23:43;20.00;69.90
18974;DHT22;9621;48.690;9.466;2023-06-19T04:26:09;20.00;69.90
18974;DHT22;9621;48.690;9.466;2023-06-19T04:28:36;20.10;70.00
18974;DHT22;9621;48.690;9.466;2023-06-19T04:31:06;20.10;70.00
18974;DHT22;9621;48.690;9.466;2023-06-19T04:33:33;20.10;70.30
18974;DHT22;9621;48.690;9.466;2023-06-19T04:36:00;20.10;70.30
18974;DHT22;9621;48.690;9.466;2023-06-19T04:38:26;20.20;70.20
18974;DHT22;9621;48.690;9.466;2023-06-19T04:40:53;20.10;70.90
18974;DHT22;9621;48.690;9.466;2023-06-19T04:43:23;20.20;70.20
18974;DHT22;9621;48.690;9.466;2023-06-19T04:45:51;20.20;70.10
18974;DHT22;9621;48.690;9.466;2023-06-19T04:48:19;20.30;70.00
18974;DHT22;9621;48.690;9.466;2023-06-19T04:50:50;20.30;69.90
18974;DHT22;9621;48.690;9.466;2023-06-19T04:53:17;20.40;69.80
18974;DHT22;9621;48.690;9.466;2023-06-19T04:55:44;20.40;69.50
18974;DHT22;9621;48.690;9.466;2023-06-19T04:58:11;20.50;69.50
18974;DHT22;9621;48.690;9.466;2023-06-19T05:00:38;20.50;70.00
18974;DHT22;9621;48.690;9.466;2023-06-19T05:03:05;20.60;70.20
18974;DHT22;9621;48.690;9.466;2023-06-19T05:05:33;20.50;70.50
18974;DHT22;9621;48.690;9.466;2023-06-19T05:08:01;20.50;70.60
18974;DHT22;9621;48.690;9.466;2023-06-19T05:10:28;20.50;70.60
18974;DHT22;9621;48.690;9.466;2023-06-19T05:12:55;20.40;70.60
18974;DHT22;9621;48.690;9.466;2023-06-19T05:15:22;20.40;70.90
18974;DHT22;9621;48.690;9.466;2023-06-19T05:17:48;20.40;71.10
18974;DHT22;9621;48.690;9.466;2023-06-19T05:20:16;20.40;71.10
18974;DHT22;9621;48.690;9.466;2023-06-19T05:22:44;20.40;71.40
18974;DHT22;9621;48.690;9.466;2023-06-19T05:25:11;20.50;71.60
18974;DHT22;9621;48.690;9.466;2023-06-19T05:27:38;20.50;71.40
18974;DHT22;9621;48.690;9.466;2023-06-19T05:30:06;20.60;71.20
18974;DHT22;9621;48.690;9.466;2023-06-19T05:32:34;20.60;71.10
18974;DHT22;9621;48.690;9.466;2023-06-19T05:35:01;20.70;71.00
18974;DHT22;9621;48.690;9.466;2023-06-19T05:37:27;20.70;70.90
18974;DHT22;9621;48.690;9.466;2023-06-19T05:39:56;20.80;70.90
18974;DHT22;9621;48.690;9.466;2023-06-19T05:42:23;20.80;70.90
18974;DHT22;9621;48.690;9.466;2023-06-19T05:44:50;20.90;71.00
18974;DHT22;9621;48.690;9.466;2023-06-19T05:47:16;20.90;70.90
18974;DHT22;9621;48.690;9.466;2023-06-19T05:49:47;21.00;70.90
18974;DHT22;9621;48.690;9.466;2023-06-19T05:52:14;21.00;70.60
18974;DHT22;9621;48.690;9.466;2023-06-19T05:54:41;21.10;70.30
18974;DHT22;9621;48.690;9.466;2023-06-19T05:57:09;21.10;70.10
18974;DHT22;9621;48.690;9.466;2023-06-19T05:59:36;21.20;70.10
18974;DHT22;9621;48.690;9.466;2023-06-19T06:02:04;21.30;70.20
18974;DHT22;9621;48.690;9.466;2023-06-19T06:04:31;21.30;70.10
18974;DHT22;9621;48.690;9.466;2023-06-19T06:06:58;21.40;70.00
18974;DHT22;9621;48.690;9.466;2023-06-19T06:09:25;21.50;69.90
18974;DHT22;9621;48.690;9.466;2023-06-19T06:11:52;21.60;69.80
18974;DHT22;9621;48.690;9.466;2023-06-19T06:14:20;21.70;69.70
18974;DHT22;9621;48.690;9.466;2023-06-19T06:16:47;21.80;69.50
18974;DHT22;9621;48.690;9.466;2023-06-19T06:19:14;22.00;69.60
18974;DHT22;9621;48.690;9.466;2023-06-19T06:21:41;22.10;69.40
18974;DHT22;9621;48.690;9.466;2023-06-19T06:24:08;22.30;69.20
18974;DHT22;9621;48.690;9.466;2023-06-19T06:26:35;22.40;68.70
18974;DHT22;9621;48.690;9.466;2023-06-19T06:29:02;22.40;68.20
18974;DHT22;9621;48.690;9.466;2023-06-19T06:31:31;22.60;68.10
18974;DHT22;9621;48.690;9.466;2023-06-19T06:33:58;22.70;68.00
18974;DHT22;9621;48.690;9.466;2023-06-19T06:36:24;22.90;68.00
18974;DHT22;9621;48.690;9.466;2023-06-19T06:38:52;23.00;67.60
18974;DHT22;9621;48.690;9.466;2023-06-19T06:41:18;23.20;67.30
18974;DHT22;9621;48.690;9.466;2023-06-19T06:43:45;23.40;66.80
18974;DHT22;9621;48.690;9.466;2023-06-19T06:46:12;23.50;66.30
18974;DHT22;9621;48.690;9.466;2023-06-19T06:48:41;23.60;66.10
18974;DHT22;9621;48.690;9.466;2023-06-19T06:51:08;23.60;65.70
18974;DHT22;9621;48.690;9.466;2023-06-19T06:53:36;23.70;65.70
18974;DHT22;9621;48.690;9.466;2023-06-19T06:56:03;23.70;65.70
18974;DHT22;9621;48.690;9.466;2023-06-19T06:58:29;23.90;65.80
18974;DHT22;9621;48.690;9.466;2023-06-19T07:00:56;24.20;65.50
18974;DHT22;9621;48.690;9.466;2023-06-19T07:03:23;24.50;65.20
18974;DHT22;9621;48.690;9.466;2023-06-19T07:05:51;24.90;64.90
18974;DHT22;9621;48.690;9.466;2023-06-19T07:08:18;25.40;64.30
18974;DHT22;9621;48.690;9.466;2023-06-19T07:10:46;26.00;63.30
18974;DHT22;9621;48.690;9.466;2023-06-19T07:13:13;26.60;61.80
18974;DHT22;9621;48.690;9.466;2023-06-19T07:15:40;27.10;61.30
18974;DHT22;9621;48.690;9.466;2023-06-19T07:18:07;27.70;59.70
18974;DHT22;9621;48.690;9.466;2023-06-19T07:20:34;28.00;58.40
18974;DHT22;9621;48.690;9.466;2023-06-19T07:23:02;28.10;57.40
18974;DHT22;9621;48.690;9.466;2023-06-19T07:25:29;28.10;57.10
18974;DHT22;9621;48.690;9.466;2023-06-19T07:27:59;27.90;56.90
18974;DHT22;9621;48.690;9.466;2023-06-19T07:30:26;27.70;56.90
18974;DHT22;9621;48.690;9.466;2023-06-19T07:32:53;27.40;57.00
18974;DHT22;9621;48.690;9.466;2023-06-19T07:35:20;27.20;57.40
18974;DHT22;9621;48.690;9.466;2023-06-19T07:37:47;26.90;57.60
18974;DHT22;9621;48.690;9.466;2023-06-19T07:40:15;26.70;58.00
18974;DHT22;9621;48.690;9.466;2023-06-19T07:42:42;26.60;58.40
18974;DHT22;9621;48.690;9.466;2023-06-19T07:45:11;26.70;58.60
18974;DHT22;9621;48.690;9.466;2023-06-19T07:47:38;26.90;58.70
18974;DHT22;9621;48.690;9.466;2023-06-19T07:50:05;27.30;58.50
18974;DHT22;9621;48.690;9.466;2023-06-19T07:52:32;27.80;57.50
18974;DHT22;9621;48.690;9.466;2023-06-19T07:54:59;28.40;56.80
18974;DHT22;9621;48.690;9.466;2023-06-19T07:57:28;29.00;56.10
18974;DHT22;9621;48.690;9.466;2023-06-19T07:59:55;29.60;55.20
18974;DHT22;9621;48.690;9.466;2023-06-19T08:02:22;30.10;54.10
18974;DHT22;9621;48.690;9.466;2023-06-19T08:04:49;30.40;53.10
18974;DHT22;9621;48.690;9.466;2023-06-19T08:07:16;30.60;52.50
18974;DHT22;9621;48.690;9.466;2023-06-19T08:09:43;30.60;52.00
18974;DHT22;9621;48.690;9.466;2023-06-19T08:12:10;30.50;52.00
18974;DHT22;9621;48.690;9.466;2023-06-19T08:14:38;30.20;51.90
18974;DHT22;9621;48.690;9.466;2023-06-19T08:17:05;29.90;52.10
18974;DHT22;9621;48.690;9.466;2023-06-19T08:19:33;29.70;52.30
18974;DHT22;9621;48.690;9.466;2023-06-19T08:22:00;29.50;52.60
18974;DHT22;9621;48.690;9.466;2023-06-19T08:24:27;29.20;52.80
18974;DHT22;9621;48.690;9.466;2023-06-19T08:26:54;29.00;53.00
18974;DHT22;9621;48.690;9.466;2023-06-19T08:29:21;29.00;53.40
18974;DHT22;9621;48.690;9.466;2023-06-19T08:31:49;29.10;53.10
18974;DHT22;9621;48.690;9.466;2023-06-19T08:34:16;29.20;52.80
18974;DHT22;9621;48.690;9.466;2023-06-19T08:36:44;29.20;52.10
18974;DHT22;9621;48.690;9.466;2023-06-19T08:39:11;29.10;52.30
18974;DHT22;9621;48.690;9.466;2023-06-19T08:41:38;29.10;52.60
18974;DHT22;9621;48.690;9.466;2023-06-19T08:44:07;29.10;52.70
18974;DHT22;9621;48.690;9.466;2023-06-19T08:46:34;29.10;52.80
18974;DHT22;9621;48.690;9.466;2023-06-19T08:49:04;29.20;52.10
18974;DHT22;9621;48.690;9.466;2023-06-19T08:51:33;29.30;52.00
18974;DHT22;9621;48.690;9.466;2023-06-19T08:54:02;29.40;52.00
18974;DHT22;9621;48.690;9.466;2023-06-19T08:56:30;29.70;52.10
18974;DHT22;9621;48.690;9.466;2023-06-19T08:59:08;30.00;50.50
18974;DHT22;9621;48.690;9.466;2023-06-19T09:01:36;30.20;49.50
18974;DHT22;9621;48.690;9.466;2023-06-19T09:04:13;30.50;49.60
18974;DHT22;9621;48.690;9.466;2023-06-19T09:06:49;30.70;49.00
18974;DHT22;9621;48.690;9.466;2023-06-19T09:09:17;30.90;47.00
18974;DHT22;9621;48.690;9.466;2023-06-19T09:11:59;31.10;47.70
18974;DHT22;9621;48.690;9.466;2023-06-19T09:14:32;31.20;47.30
18974;DHT22;9621;48.690;9.466;2023-06-19T09:17:00;31.40;47.40
18974;DHT22;9621;48.690;9.466;2023-06-19T09:19:30;31.60;47.20
18974;DHT22;9621;48.690;9.466;2023-06-19T09:22:01;31.90;46.50
18974;DHT22;9621;48.690;9.466;2023-06-19T09:24:34;32.10;46.10
18974;DHT22;9621;48.690;9.466;2023-06-19T09:27:08;32.30;45.60
18974;DHT22;9621;48.690;9.466;2023-06-19T09:29:40;32.30;45.40
18974;DHT22;9621;48.690;9.466;2023-06-19T09:32:17;32.10;45.50
18974;DHT22;9621;48.690;9.466;2023-06-19T09:34:46;31.90;45.30
18974;DHT22;9621;48.690;9.466;2023-06-19T09:37:14;31.70;46.10
18974;DHT22;9621;48.690;9.466;2023-06-19T09:39:41;31.70;46.10
18974;DHT22;9621;48.690;9.466;2023-06-19T09:42:09;31.80;46.10
18974;DHT22;9621;48.690;9.466;2023-06-19T09:44:40;32.00;45.60
18974;DHT22;9621;48.690;9.466;2023-06-19T09:47:14;32.10;45.20
18974;DHT22;9621;48.690;9.466;2023-06-19T09:49:48;32.30;45.00
18974;DHT22;9621;48.690;9.466;2023-06-19T09:52:16;32.40;45.00
18974;DHT22;9621;48.690;9.466;2023-06-19T09:54:46;32.60;44.90
18974;DHT22;9621;48.690;9.466;2023-06-19T09:57:13;32.80;44.60
18974;DHT22;9621;48.690;9.466;2023-06-19T09:59:42;33.00;44.60
18974;DHT22;9621;48.690;9.466;2023-06-19T10:02:10;33.20;43.90
18974;DHT22;9621;48.690;9.466;2023-06-19T10:04:44;33.40;43.60
18974;DHT22;9621;48.690;9.466;2023-06-19T10:07:17;33.60;43.60
18974;DHT22;9621;48.690;9.466;2023-06-19T10:10:01;33.80;43.10
18974;DHT22;9621;48.690;9.466;2023-06-19T10:12:36;34.00;43.00
18974;DHT22;9621;48.690;9.466;2023-06-19T10:15:16;33.90;43.20
18974;DHT22;9621;48.690;9.466;2023-06-19T10:17:46;33.80;42.90
18974;DHT22;9621;48.690;9.466;2023-06-19T10:20:22;33.70;43.50
18974;DHT22;9621;48.690;9.466;2023-06-19T10:22:58;33.60;43.30
18974;DHT22;9621;48.690;9.466;2023-06-19T10:25:28;33.50;43.10
18974;DHT22;9621;48.690;9.466;2023-06-19T10:27:57;33.40;43.40
18974;DHT22;9621;48.690;9.466;2023-06-19T10:30:25;33.30;43.60
18974;DHT22;9621;48.690;9.466;2023-06-19T10:32:52;33.20;43.60
18974;DHT22;9621;48.690;9.466;2023-06-19T10:35:19;33.00;44.00
18974;DHT22;9621;48.690;9.466;2023-06-19T10:37:48;32.90;44.20
18974;DHT22;9621;48.690;9.466;2023-06-19T10:40:17;32.90;44.40
18974;DHT22;9621;48.690;9.466;2023-06-19T10:42:44;33.00;44.10
18974;DHT22;9621;48.690;9.466;2023-06-19T10:45:13;33.20;43.90
18974;DHT22;9621;48.690;9.466;2023-06-19T10:47:42;33.50;43.00
18974;DHT22;9621;48.690;9.466;2023-06-19T10:50:12;33.70;42.40
18974;DHT22;9621;48.690;9.466;2023-06-19T10:52:41;33.90;42.40
18974;DHT22;9621;48.690;9.466;2023-06-19T10:55:10;34.10;42.20
18974;DHT22;9621;48.690;9.466;2023-06-19T10:57:38;34.30;41.80
18974;DHT22;9621;48.690;9.466;2023-06-19T11:00:06;34.40;41.30
18974;DHT22;9621;48.690;9.466;2023-06-19T11:02:39;34.50;41.40
18974;DHT22;9621;48.690;9.466;2023-06-19T11:05:09;34.50;41.10
18974;DHT22;9621;48.690;9.466;2023-06-19T11:07:36;34.70;41.10
18974;DHT22;9621;48.690;9.466;2023-06-19T11:10:04;34.80;40.40
18974;DHT22;9621;48.690;9.466;2023-06-19T11:12:32;34.80;40.10
18974;DHT22;9621;48.690;9.466;2023-06-19T11:15:03;34.70;39.50
18974;DHT22;9621;48.690;9.466;2023-06-19T11:17:30;34.70;39.40
18974;DHT22;9621;48.690;9.466;2023-06-19T11:19:58;34.70;39.30
18974;DHT22;9621;48.690;9.466;2023-06-19T11:22:36;34.60;38.90
18974;DHT22;9621;48.690;9.466;2023-06-19T11:25:04;34.40;39.60
18974;DHT22;9621;48.690;9.466;2023-06-19T11:27:32;34.50;40.00
18974;DHT22;9621;48.690;9.466;2023-06-19T11:30:02;34.60;39.40
18974;DHT22;9621;48.690;9.466;2023-06-19T11:32:34;34.80;39.40
18974;DHT22;9621;48.690;9.466;2023-06-19T11:35:05;34.90;39.50
18974;DHT22;9621;48.690;9.466;2023-06-19T11:37:34;35.00;39.20
18974;DHT22;9621;48.690;9.466;2023-06-19T11:40:01;34.90;39.40
18974;DHT22;9621;48.690;9.466;2023-06-19T11:42:45;34.80;39.10
18974;DHT22;9621;48.690;9.466;2023-06-19T11:45:13;34.60;39.10
18974;DHT22;9621;48.690;9.466;2023-06-19T11:47:40;34.50;39.70
18974;DHT22;9621;48.690;9.466;2023-06-19T11:50:10;34.40;40.50
18974;DHT22;9621;48.690;9.466;2023-06-19T11:52:37;34.20;40.60
18974;DHT22;9621;48.690;9.466;2023-06-19T11:55:04;34.40;40.60
18974;DHT22;9621;48.690;9.466;2023-06-19T11:57:31;34.60;40.30
18974;DHT22;9621;48.690;9.466;2023-06-19T11:59:58;34.80;40.20
18974;DHT22;9621;48.690;9.466;2023-06-19T12:02:27;35.00;39.70
18974;DHT22;9621;48.690;9.466;2023-06-19T12:04:53;35.30;40.40
18974;DHT22;9621;48.690;9.466;2023-06-19T12:07:20;35.60;39.20
18974;DHT22;9621;48.690;9.466;2023-06-19T12:09:47;35.70;38.50
18974;DHT22;9621;48.690;9.466;2023-06-19T12:12:14;35.70;39.80
18974;DHT22;9621;48.690;9.466;2023-06-19T12:14:42;35.60;39.20
18974;DHT22;9621;48.690;9.466;2023-06-19T12:17:09;35.50;38.60
18974;DHT22;9621;48.690;9.466;2023-06-19T12:19:38;35.30;38.40
18974;DHT22;9621;48.690;9.466;2023-06-19T12:22:05;35.10;38.20
18974;DHT22;9621;48.690;9.466;2023-06-19T12:24:32;35.00;39.00
18974;DHT22;9621;48.690;9.466;2023-06-19T12:26:59;34.80;39.00
18974;DHT22;9621;48.690;9.466;2023-06-19T12:29:26;34.70;39.00
18974;DHT22;9621;48.690;9.466;2023-06-19T12:31:59;34.60;39.30
18974;DHT22;9621;48.690;9.466;2023-06-19T12:34:26;34.60;39.00
18974;DHT22;9621;48.690;9.466;2023-06-19T12:36:55;34.60;39.30
18974;DHT22;9621;48.690;9.466;2023-06-19T12:39:22;34.50;39.60
18974;DHT22;9621;48.690;9.466;2023-06-19T12:41:50;34.50;39.10
18974;DHT22;9621;48.690;9.466;2023-06-19T12:44:17;34.40;39.30
18974;DHT22;9621;48.690;9.466;2023-06-19T12:46:44;34.30;40.50
18974;DHT22;9621;48.690;9.466;2023-06-19T12:49:11;34.20;39.50
18974;DHT22;9621;48.690;9.466;2023-06-19T12:51:38;34.10;39.60
18974;DHT22;9621;48.690;9.466;2023-06-19T12:54:06;34.00;40.10
18974;DHT22;9621;48.690;9.466;2023-06-19T12:56:33;34.00;40.90
18974;DHT22;9621;48.690;9.466;2023-06-19T12:59:00;34.10;40.60
18974;DHT22;9621;48.690;9.466;2023-06-19T13:01:27;34.20;39.90
18974;DHT22;9621;48.690;9.466;2023-06-19T13:03:54;34.20;39.70
18974;DHT22;9621;48.690;9.466;2023-06-19T13:06:20;34.30;40.00
18974;DHT22;9621;48.690;9.466;2023-06-19T13:08:47;34.50;40.20
18974;DHT22;9621;48.690;9.466;2023-06-19T13:11:16;34.60;40.00
18974;DHT22;9621;48.690;9.466;2023-06-19T13:13:43;34.80;39.40
18974;DHT22;9621;48.690;9.466;2023-06-19T13:16:10;34.80;39.80
18974;DHT22;9621;48.690;9.466;2023-06-19T13:18:36;34.90;39.90
18974;DHT22;9621;48.690;9.466;2023-06-19T13:21:03;35.10;39.00
18974;DHT22;9621;48.690;9.466;2023-06-19T13:23:30;35.30;38.80
18974;DHT22;9621;48.690;9.466;2023-06-19T13:25:57;35.50;38.70
18974;DHT22;9621;48.690;9.466;2023-06-19T13:28:26;35.70;38.30
18974;DHT22;9621;48.690;9.466;2023-06-19T13:30:53;35.80;38.10
18974;DHT22;9621;48.690;9.466;2023-06-19T13:33:20;35.90;37.80
18974;DHT22;9621;48.690;9.466;2023-06-19T13:35:47;36.00;37.60
18974;DHT22;9621;48.690;9.466;2023-06-19T13:38:14;35.80;37.30
18974;DHT22;9621;48.690;9.466;2023-06-19T13:40:41;35.60;37.30
18974;DHT22;9621;48.690;9.466;2023-06-19T13:43:08;35.30;37.70
18974;DHT22;9621;48.690;9.466;2023-06-19T13:45:37;35.00;38.10
18974;DHT22;9621;48.690;9.466;2023-06-19T13:48:04;34.90;38.50
18974;DHT22;9621;48.690;9.466;2023-06-19T13:50:31;34.80;38.30
18974;DHT22;9621;48.690;9.466;2023-06-19T13:52:58;34.80;38.60
18974;DHT22;9621;48.690;9.466;2023-06-19T13:55:25;34.80;38.20
18974;DHT22;9621;48.690;9.466;2023-06-19T13:57:52;34.80;38.60
18974;DHT22;9621;48.690;9.466;2023-06-19T14:00:19;34.90;38.30
18974;DHT22;9621;48.690;9.466;2023-06-19T14:02:47;34.80;38.00
18974;DHT22;9621;48.690;9.466;2023-06-19T14:05:15;34.70;38.20
18974;DHT22;9621;48.690;9.466;2023-06-19T14:07:42;34.60;38.50
18974;DHT22;9621;48.690;9.466;2023-06-19T14:10:09;34.70;38.60
18974;DHT22;9621;48.690;9.466;2023-06-19T14:12:36;34.70;39.20
18974;DHT22;9621;48.690;9.466;2023-06-19T14:15:05;34.80;38.70
18974;DHT22;9621;48.690;9.466;2023-06-19T14:17:32;35.00;38.70
18974;DHT22;9621;48.690;9.466;2023-06-19T14:20:00;35.10;39.10
18974;DHT22;9621;48.690;9.466;2023-06-19T14:22:30;35.20;38.10
18974;DHT22;9621;48.690;9.466;2023-06-19T14:24:56;35.30;38.40
18974;DHT22;9621;48.690;9.466;2023-06-19T14:27:25;35.40;38.20
18974;DHT22;9621;48.690;9.466;2023-06-19T14:29:53;35.40;38.20
18974;DHT22;9621;48.690;9.466;2023-06-19T14:32:20;35.60;37.50
18974;DHT22;9621;48.690;9.466;2023-06-19T14:34:47;35.70;37.10
18974;DHT22;9621;48.690;9.466;2023-06-19T14:37:15;35.70;37.50
18974;DHT22;9621;48.690;9.466;2023-06-19T14:39:42;35.80;37.20
18974;DHT22;9621;48.690;9.466;2023-06-19T14:42:09;35.70;36.50
18974;DHT22;9621;48.690;9.466;2023-06-19T14:44:36;35.60;36.20
18974;DHT22;9621;48.690;9.466;2023-06-19T14:47:04;35.40;36.10
18974;DHT22;9621;48.690;9.466;2023-06-19T14:49:31;35.20;36.70
18974;DHT22;9621;48.690;9.466;2023-06-19T14:51:57;35.00;37.60
18974;DHT22;9621;48.690;9.466;2023-06-19T14:54:26;35.00;37.50
18974;DHT22;9621;48.690;9.466;2023-06-19T14:56:53;35.10;37.60
18974;DHT22;9621;48.690;9.466;2023-06-19T14:59:20;35.00;37.50
18974;DHT22;9621;48.690;9.466;2023-06-19T15:01:47;35.10;38.00
18974;DHT22;9621;48.690;9.466;2023-06-19T15:04:14;35.10;37.50
18974;DHT22;9621;48.690;9.466;2023-06-19T15:06:41;35.20;38.00
18974;DHT22;9621;48.690;9.466;2023-06-19T15:09:08;35.40;38.20
18974;DHT22;9621;48.690;9.466;2023-06-19T15:11:36;35.60;37.50
18974;DHT22;9621;48.690;9.466;2023-06-19T15:14:03;35.70;37.20
18974;DHT22;9621;48.690;9.466;2023-06-19T15:16:30;35.80;36.70
18974;DHT22;9621;48.690;9.466;2023-06-19T15:18:57;35.80;36.80
18974;DHT22;9621;48.690;9.466;2023-06-19T15:21:24;35.80;36.70
18974;DHT22;9621;48.690;9.466;2023-06-19T15:23:53;35.80;37.60
18974;DHT22;9621;48.690;9.466;2023-06-19T15:26:20;35.90;37.20
18974;DHT22;9621;48.690;9.466;2023-06-19T15:28:49;35.90;37.10
18974;DHT22;9621;48.690;9.466;2023-06-19T15:31:20;35.90;36.80
18974;DHT22;9621;48.690;9.466;2023-06-19T15:33:48;35.80;36.20
18974;DHT22;9621;48.690;9.466;2023-06-19T15:36:15;35.60;36.70
18974;DHT22;9621;48.690;9.466;2023-06-19T15:38:42;35.50;37.10
18974;DHT22;9621;48.690;9.466;2023-06-19T15:41:09;35.30;36.70
18974;DHT22;9621;48.690;9.466;2023-06-19T15:43:36;35.00;36.40
18974;DHT22;9621;48.690;9.466;2023-06-19T15:46:04;34.60;36.70
18974;DHT22;9621;48.690;9.466;2023-06-19T15:48:33;34.30;37.90